sensor_id;sensor_type;location;lat;lon;timestamp;pressure;altitude;pressure_sealevel;temperature;humidity
56568;BME280;42456;49.956;20.004;2024-02-23T00:01:14;96472.27;;;9.58;67.72
56568;BME280;42456;49.956;20.004;2024-02-23T00:03:41;96472.11;;;9.58;67.57
56568;BME280;42456;49.956;20.004;2024-02-23T00:06:08;96460.91;;;9.57;67.86
56568;BME280;42456;49.956;20.004;2024-02-23T00:08:35;96465.76;;;9.58;67.75
56568;BME280;42456;49.956;20.004;2024-02-23T00:11:04;96464.50;;;9.56;67.90
56568;BME280;42456;49.956;20.004;2024-02-23T00:13:33;96462.27;;;9.56;67.70
56568;BME280;42456;49.956;20.004;2024-02-23T00:16:00;96457.74;;;9.56;67.80
56568;BME280;42456;49.956;20.004;2024-02-23T00:18:26;96451.46;;;9.56;67.93
56568;BME280;42456;49.956;20.004;2024-02-23T00:20:53;96454.73;;;9.55;68.05
56568;BME280;42456;49.956;20.004;2024-02-23T00:23:20;96444.92;;;9.55;68.11
56568;BME280;42456;49.956;20.004;2024-02-23T00:25:48;96446.61;;;9.54;68.17
56568;BME280;42456;49.956;20.004;2024-02-23T00:28:15;96443.85;;;9.54;68.17
56568;BME280;42456;49.956;20.004;2024-02-23T00:30:41;96451.27;;;9.54;68.26
56568;BME280;42456;49.956;20.004;2024-02-23T00:33:08;96456.26;;;9.54;68.26
56568;BME280;42456;49.956;20.004;2024-02-23T00:35:36;96459.48;;;9.53;68.30
56568;BME280;42456;49.956;20.004;2024-02-23T00:38:03;96464.47;;;9.54;68.42
56568;BME280;42456;49.956;20.004;2024-02-23T00:40:30;96453.73;;;9.54;68.71
56568;BME280;42456;49.956;20.004;2024-02-23T00:42:57;96444.62;;;9.54;68.83
56568;BME280;42456;49.956;20.004;2024-02-23T00:45:40;96443.67;;;9.52;69.10
56568;BME280;42456;49.956;20.004;2024-02-23T00:48:07;96440.54;;;9.52;69.20
56568;BME280;42456;49.956;20.004;2024-02-23T00:50:34;96435.46;;;9.51;69.40
56568;BME280;42456;49.956;20.004;2024-02-23T00:53:01;96441.12;;;9.50;69.40
56568;BME280;42456;49.956;20.004;2024-02-23T00:55:28;96445.48;;;9.49;69.68
56568;BME280;42456;49.956;20.004;2024-02-23T00:57:55;96448.68;;;9.48;69.95
56568;BME280;42456;49.956;20.004;2024-02-23T01:00:21;96444.85;;;9.47;70.34
56568;BME280;42456;49.956;20.004;2024-02-23T01:02:49;96451.50;;;9.46;70.23
56568;BME280;42456;49.956;20.004;2024-02-23T01:05:17;96442.73;;;9.44;70.43
56568;BME280;42456;49.956;20.004;2024-02-23T01:07:44;96441.10;;;9.43;70.57
56568;BME280;42456;49.956;20.004;2024-02-23T01:10:11;96441.25;;;9.42;70.58
56568;BME280;42456;49.956;20.004;2024-02-23T01:12:38;96440.70;;;9.40;70.76
56568;BME280;42456;49.956;20.004;2024-02-23T01:15:05;96438.14;;;9.39;70.92
56568;BME280;42456;49.956;20.004;2024-02-23T01:17:32;96440.14;;;9.38;70.95
56568;BME280;42456;49.956;20.004;2024-02-23T01:20:00;96441.71;;;9.36;71.20
56568;BME280;42456;49.956;20.004;2024-02-23T01:22:27;96440.31;;;9.34;71.20
56568;BME280;42456;49.956;20.004;2024-02-23T01:24:54;96439.59;;;9.32;71.37
56568;BME280;42456;49.956;20.004;2024-02-23T01:27:21;96439.64;;;9.31;71.51
56568;BME280;42456;49.956;20.004;2024-02-23T01:29:48;96441.48;;;9.30;71.63
56568;BME280;42456;49.956;20.004;2024-02-23T01:32:15;96438.77;;;9.28;71.60
56568;BME280;42456;49.956;20.004;2024-02-23T01:34:42;96433.09;;;9.27;71.57
56568;BME280;42456;49.956;20.004;2024-02-23T01:37:09;96434.00;;;9.26;71.71
56568;BME280;42456;49.956;20.004;2024-02-23T01:39:38;96433.52;;;9.24;71.94
56568;BME280;42456;49.956;20.004;2024-02-23T01:42:05;96429.66;;;9.23;71.95
56568;BME280;42456;49.956;20.004;2024-02-23T01:44:32;96423.51;;;9.20;72.17
56568;BME280;42456;49.956;20.004;2024-02-23T01:46:59;96421.41;;;9.19;72.24
56568;BME280;42456;49.956;20.004;2024-02-23T01:49:26;96422.40;;;9.18;72.11
56568;BME280;42456;49.956;20.004;2024-02-23T01:51:58;96420.77;;;9.16;72.08
56568;BME280;42456;49.956;20.004;2024-02-23T01:54:25;96416.77;;;9.15;72.19
56568;BME280;42456;49.956;20.004;2024-02-23T01:56:55;96418.30;;;9.15;72.47
56568;BME280;42456;49.956;20.004;2024-02-23T01:59:27;96416.90;;;9.14;72.09
56568;BME280;42456;49.956;20.004;2024-02-23T02:01:55;96416.81;;;9.13;72.23
56568;BME280;42456;49.956;20.004;2024-02-23T02:04:22;96418.11;;;9.13;72.11
56568;BME280;42456;49.956;20.004;2024-02-23T02:06:49;96425.38;;;9.12;72.02
56568;BME280;42456;49.956;20.004;2024-02-23T02:09:16;96422.70;;;9.11;72.28
56568;BME280;42456;49.956;20.004;2024-02-23T02:11:50;96415.85;;;9.10;72.05
56568;BME280;42456;49.956;20.004;2024-02-23T02:14:17;96420.90;;;9.09;72.15
56568;BME280;42456;49.956;20.004;2024-02-23T02:16:45;96419.66;;;9.08;72.35
56568;BME280;42456;49.956;20.004;2024-02-23T02:19:13;96416.44;;;9.08;72.06
56568;BME280;42456;49.956;20.004;2024-02-23T02:21:41;96410.46;;;9.09;71.83
56568;BME280;42456;49.956;20.004;2024-02-23T02:24:08;96411.77;;;9.08;71.92
56568;BME280;42456;49.956;20.004;2024-02-23T02:26:37;96409.39;;;9.08;71.99
56568;BME280;42456;49.956;20.004;2024-02-23T02:29:04;96413.83;;;9.08;71.81
56568;BME280;42456;49.956;20.004;2024-02-23T02:31:32;96414.05;;;9.08;71.84
56568;BME280;42456;49.956;20.004;2024-02-23T02:34:04;96418.59;;;9.08;71.53
56568;BME280;42456;49.956;20.004;2024-02-23T02:36:32;96421.50;;;9.08;71.63
56568;BME280;42456;49.956;20.004;2024-02-23T02:38:58;96421.66;;;9.08;71.61
56568;BME280;42456;49.956;20.004;2024-02-23T02:41:28;96422.90;;;9.09;71.49
56568;BME280;42456;49.956;20.004;2024-02-23T02:44:00;96422.73;;;9.10;71.34
56568;BME280;42456;49.956;20.004;2024-02-23T02:46:27;96424.98;;;9.10;71.44
56568;BME280;42456;49.956;20.004;2024-02-23T02:48:53;96430.19;;;9.11;71.27
56568;BME280;42456;49.956;20.004;2024-02-23T02:51:20;96429.36;;;9.12;71.37
56568;BME280;42456;49.956;20.004;2024-02-23T02:53:47;96428.38;;;9.12;71.31
56568;BME280;42456;49.956;20.004;2024-02-23T02:56:14;96432.75;;;9.14;71.37
56568;BME280;42456;49.956;20.004;2024-02-23T02:58:41;96428.46;;;9.13;71.10
56568;BME280;42456;49.956;20.004;2024-02-23T03:01:08;96429.08;;;9.13;71.03
56568;BME280;42456;49.956;20.004;2024-02-23T03:03:35;96432.15;;;9.14;70.93
56568;BME280;42456;49.956;20.004;2024-02-23T03:06:02;96433.92;;;9.14;70.76
56568;BME280;42456;49.956;20.004;2024-02-23T03:08:29;96433.16;;;9.15;70.82
56568;BME280;42456;49.956;20.004;2024-02-23T03:10:56;96426.73;;;9.15;70.68
56568;BME280;42456;49.956;20.004;2024-02-23T03:13:24;96422.14;;;9.16;70.68
56568;BME280;42456;49.956;20.004;2024-02-23T03:15:50;96420.30;;;9.16;70.44
56568;BME280;42456;49.956;20.004;2024-02-23T03:18:17;96417.63;;;9.17;70.43
56568;BME280;42456;49.956;20.004;2024-02-23T03:20:44;96411.80;;;9.17;70.43
56568;BME280;42456;49.956;20.004;2024-02-23T03:23:11;96411.34;;;9.17;70.42
56568;BME280;42456;49.956;20.004;2024-02-23T03:25:38;96408.05;;;9.17;70.30
56568;BME280;42456;49.956;20.004;2024-02-23T03:28:05;96406.21;;;9.17;70.32
56568;BME280;42456;49.956;20.004;2024-02-23T03:30:32;96407.14;;;9.17;70.25
56568;BME280;42456;49.956;20.004;2024-02-23T03:33:03;96411.27;;;9.17;70.34
56568;BME280;42456;49.956;20.004;2024-02-23T03:35:30;96413.72;;;9.17;70.23
56568;BME280;42456;49.956;20.004;2024-02-23T03:38:17;96414.02;;;9.17;70.41
56568;BME280;42456;49.956;20.004;2024-02-23T03:41:28;96413.54;;;9.15;70.34
56568;BME280;42456;49.956;20.004;2024-02-23T03:43:56;96412.24;;;9.15;70.33
56568;BME280;42456;49.956;20.004;2024-02-23T03:46:23;96412.72;;;9.16;70.17
56568;BME280;42456;49.956;20.004;2024-02-23T03:48:50;96415.86;;;9.17;70.52
56568;BME280;42456;49.956;20.004;2024-02-23T03:51:18;96421.39;;;9.17;70.24
56568;BME280;42456;49.956;20.004;2024-02-23T03:53:45;96428.36;;;9.17;70.34
56568;BME280;42456;49.956;20.004;2024-02-23T03:56:12;96434.95;;;9.17;70.46
56568;BME280;42456;49.956;20.004;2024-02-23T03:58:39;96435.80;;;9.18;70.41
56568;BME280;42456;49.956;20.004;2024-02-23T04:01:06;96433.27;;;9.18;70.39
56568;BME280;42456;49.956;20.004;2024-02-23T04:03:33;96436.88;;;9.18;70.42
56568;BME280;42456;49.956;20.004;2024-02-23T04:06:00;96439.02;;;9.18;70.28
56568;BME280;42456;49.956;20.004;2024-02-23T04:08:27;96443.62;;;9.18;70.25
56568;BME280;42456;49.956;20.004;2024-02-23T04:10:54;96442.40;;;9.18;70.15
56568;BME280;42456;49.956;20.004;2024-02-23T04:13:22;96447.53;;;9.18;70.23
56568;BME280;42456;49.956;20.004;2024-02-23T04:15:49;96451.27;;;9.17;70.19
56568;BME280;42456;49.956;20.004;2024-02-23T04:18:16;96461.88;;;9.18;70.16
56568;BME280;42456;49.956;20.004;2024-02-23T04:20:43;96467.38;;;9.18;70.21
56568;BME280;42456;49.956;20.004;2024-02-23T04:23:10;96464.42;;;9.20;70.32
56568;BME280;42456;49.956;20.004;2024-02-23T04:25:37;96468.48;;;9.19;70.47
56568;BME280;42456;49.956;20.004;2024-02-23T04:28:05;96471.01;;;9.19;70.54
56568;BME280;42456;49.956;20.004;2024-02-23T04:30:32;96474.60;;;9.19;70.72
56568;BME280;42456;49.956;20.004;2024-02-23T04:32:59;96468.54;;;9.18;71.04
56568;BME280;42456;49.956;20.004;2024-02-23T04:35:26;96472.44;;;9.19;71.11
56568;BME280;42456;49.956;20.004;2024-02-23T04:37:53;96479.64;;;9.18;71.24
56568;BME280;42456;49.956;20.004;2024-02-23T04:40:20;96481.00;;;9.17;71.23
56568;BME280;42456;49.956;20.004;2024-02-23T04:42:47;96482.98;;;9.16;71.36
56568;BME280;42456;49.956;20.004;2024-02-23T04:45:14;96483.21;;;9.15;71.70
56568;BME280;42456;49.956;20.004;2024-02-23T04:47:40;96485.79;;;9.14;71.56
56568;BME280;42456;49.956;20.004;2024-02-23T04:50:08;96485.79;;;9.14;71.94
56568;BME280;42456;49.956;20.004;2024-02-23T04:52:35;96483.02;;;9.12;71.93
56568;BME280;42456;49.956;20.004;2024-02-23T04:55:02;96486.39;;;9.12;72.05
56568;BME280;42456;49.956;20.004;2024-02-23T04:57:29;96488.98;;;9.12;71.98
56568;BME280;42456;49.956;20.004;2024-02-23T04:59:56;96490.66;;;9.12;71.75
56568;BME280;42456;49.956;20.004;2024-02-23T05:02:23;96489.29;;;9.12;72.04
56568;BME280;42456;49.956;20.004;2024-02-23T05:04:50;96494.11;;;9.12;72.15
56568;BME280;42456;49.956;20.004;2024-02-23T05:07:17;96495.86;;;9.10;71.99
56568;BME280;42456;49.956;20.004;2024-02-23T05:09:44;96496.30;;;9.09;72.14
56568;BME280;42456;49.956;20.004;2024-02-23T05:12:10;96495.60;;;9.09;72.16
56568;BME280;42456;49.956;20.004;2024-02-23T05:14:37;96497.80;;;9.08;72.54
56568;BME280;42456;49.956;20.004;2024-02-23T05:17:04;96501.41;;;9.08;72.35
56568;BME280;42456;49.956;20.004;2024-02-23T05:19:31;96504.32;;;9.08;72.23
56568;BME280;42456;49.956;20.004;2024-02-23T05:21:58;96505.15;;;9.07;72.36
56568;BME280;42456;49.956;20.004;2024-02-23T05:24:25;96507.14;;;9.07;72.51
56568;BME280;42456;49.956;20.004;2024-02-23T05:26:52;96513.48;;;9.06;72.46
56568;BME280;42456;49.956;20.004;2024-02-23T05:29:19;96516.99;;;9.05;72.78
56568;BME280;42456;49.956;20.004;2024-02-23T05:31:52;96522.41;;;9.03;72.84
56568;BME280;42456;49.956;20.004;2024-02-23T05:34:20;96523.60;;;9.01;73.04
56568;BME280;42456;49.956;20.004;2024-02-23T05:36:47;96524.10;;;8.99;73.06
56568;BME280;42456;49.956;20.004;2024-02-23T05:39:15;96530.84;;;8.99;73.31
56568;BME280;42456;49.956;20.004;2024-02-23T05:41:42;96540.62;;;8.97;73.45
56568;BME280;42456;49.956;20.004;2024-02-23T05:44:23;96541.20;;;8.96;73.40
56568;BME280;42456;49.956;20.004;2024-02-23T05:46:50;96543.73;;;8.95;73.64
56568;BME280;42456;49.956;20.004;2024-02-23T05:49:17;96549.58;;;8.92;73.74
56568;BME280;42456;49.956;20.004;2024-02-23T05:51:45;96557.88;;;8.90;74.19
56568;BME280;42456;49.956;20.004;2024-02-23T05:54:12;96559.83;;;8.87;74.37
56568;BME280;42456;49.956;20.004;2024-02-23T05:56:39;96563.33;;;8.85;74.85
56568;BME280;42456;49.956;20.004;2024-02-23T05:59:06;96568.33;;;8.82;75.11
56568;BME280;42456;49.956;20.004;2024-02-23T06:01:34;96570.65;;;8.79;75.48
56568;BME280;42456;49.956;20.004;2024-02-23T06:04:01;96574.58;;;8.75;75.78
56568;BME280;42456;49.956;20.004;2024-02-23T06:06:29;96575.34;;;8.71;76.29
56568;BME280;42456;49.956;20.004;2024-02-23T06:08:57;96580.25;;;8.67;76.64
56568;BME280;42456;49.956;20.004;2024-02-23T06:11:23;96584.34;;;8.64;76.72
56568;BME280;42456;49.956;20.004;2024-02-23T06:13:50;96579.36;;;8.60;77.08
56568;BME280;42456;49.956;20.004;2024-02-23T06:16:18;96582.45;;;8.58;77.47
56568;BME280;42456;49.956;20.004;2024-02-23T06:18:45;96585.02;;;8.55;77.88
56568;BME280;42456;49.956;20.004;2024-02-23T06:21:16;96591.26;;;8.53;78.19
56568;BME280;42456;49.956;20.004;2024-02-23T06:23:47;96595.36;;;8.51;78.62
56568;BME280;42456;49.956;20.004;2024-02-23T06:26:14;96596.71;;;8.50;78.95
56568;BME280;42456;49.956;20.004;2024-02-23T06:28:40;96604.83;;;8.50;79.15
56568;BME280;42456;49.956;20.004;2024-02-23T06:31:10;96609.48;;;8.49;79.56
56568;BME280;42456;49.956;20.004;2024-02-23T06:33:41;96609.36;;;8.47;79.82
56568;BME280;42456;49.956;20.004;2024-02-23T06:36:09;96612.02;;;8.47;80.11
56568;BME280;42456;49.956;20.004;2024-02-23T06:38:36;96622.05;;;8.46;80.42
56568;BME280;42456;49.956;20.004;2024-02-23T06:41:03;96622.69;;;8.48;80.66
56568;BME280;42456;49.956;20.004;2024-02-23T06:43:30;96624.94;;;8.49;80.88
56568;BME280;42456;49.956;20.004;2024-02-23T06:46:11;96623.95;;;8.49;81.26
56568;BME280;42456;49.956;20.004;2024-02-23T06:49:12;96622.30;;;8.51;81.88
56568;BME280;42456;49.956;20.004;2024-02-23T06:51:40;96620.43;;;8.53;81.97
56568;BME280;42456;49.956;20.004;2024-02-23T06:54:10;96624.73;;;8.59;81.87
56568;BME280;42456;49.956;20.004;2024-02-23T06:56:51;96633.17;;;8.64;82.45
56568;BME280;42456;49.956;20.004;2024-02-23T06:59:41;96642.09;;;8.70;82.63
56568;BME280;42456;49.956;20.004;2024-02-23T07:02:13;96647.77;;;8.74;82.71
56568;BME280;42456;49.956;20.004;2024-02-23T07:05:07;96652.61;;;8.80;82.89
56568;BME280;42456;49.956;20.004;2024-02-23T07:07:36;96649.70;;;8.80;83.00
56568;BME280;42456;49.956;20.004;2024-02-23T07:10:08;96652.78;;;8.85;83.18
56568;BME280;42456;49.956;20.004;2024-02-23T08:31:59;96751.16;;;9.40;85.43
56568;BME280;42456;49.956;20.004;2024-02-23T08:34:33;96758.46;;;9.41;85.57
56568;BME280;42456;49.956;20.004;2024-02-23T08:37:01;96760.23;;;9.42;85.83
56568;BME280;42456;49.956;20.004;2024-02-23T08:39:29;96764.39;;;9.43;85.68
56568;BME280;42456;49.956;20.004;2024-02-23T08:41:57;96761.63;;;9.43;85.56
56568;BME280;42456;49.956;20.004;2024-02-23T08:44:24;96761.98;;;9.42;85.87
56568;BME280;42456;49.956;20.004;2024-02-23T08:46:51;96758.66;;;9.40;85.84
56568;BME280;42456;49.956;20.004;2024-02-23T08:49:19;96756.27;;;9.39;85.70
56568;BME280;42456;49.956;20.004;2024-02-23T08:51:49;96753.17;;;9.37;85.70
56568;BME280;42456;49.956;20.004;2024-02-23T08:54:19;96747.52;;;9.33;85.69
56568;BME280;42456;49.956;20.004;2024-02-23T08:56:50;96757.79;;;9.34;85.56
56568;BME280;42456;49.956;20.004;2024-02-23T08:59:17;96756.45;;;9.36;85.61
56568;BME280;42456;49.956;20.004;2024-02-23T09:01:45;96763.23;;;9.38;85.76
56568;BME280;42456;49.956;20.004;2024-02-23T09:04:30;96766.35;;;9.41;85.63
56568;BME280;42456;49.956;20.004;2024-02-23T09:06:57;96766.41;;;9.44;85.73
56568;BME280;42456;49.956;20.004;2024-02-23T09:09:27;96771.55;;;9.49;85.54
56568;BME280;42456;49.956;20.004;2024-02-23T09:11:56;96774.66;;;9.52;85.49
56568;BME280;42456;49.956;20.004;2024-02-23T09:14:26;96781.40;;;9.50;85.64
56568;BME280;42456;49.956;20.004;2024-02-23T09:16:56;96787.09;;;9.52;85.67
56568;BME280;42456;49.956;20.004;2024-02-23T09:19:26;96797.85;;;9.54;85.53
56568;BME280;42456;49.956;20.004;2024-02-23T09:52:07;96834.43;;;9.84;85.32
56568;BME280;42456;49.956;20.004;2024-02-23T09:55:57;96836.67;;;9.85;85.00
56568;BME280;42456;49.956;20.004;2024-02-23T09:58:48;96845.03;;;9.85;84.82
56568;BME280;42456;49.956;20.004;2024-02-23T10:01:39;96852.71;;;9.86;84.84
56568;BME280;42456;49.956;20.004;2024-02-23T10:04:30;96849.83;;;9.87;85.19
56568;BME280;42456;49.956;20.004;2024-02-23T10:07:16;96849.86;;;9.90;85.35
56568;BME280;42456;49.956;20.004;2024-02-23T10:09:44;96845.61;;;9.93;85.29
56568;BME280;42456;49.956;20.004;2024-02-23T10:12:13;96843.49;;;9.98;85.42
56568;BME280;42456;49.956;20.004;2024-02-23T10:14:43;96845.30;;;10.06;85.35
56568;BME280;42456;49.956;20.004;2024-02-23T10:17:10;96848.23;;;10.10;85.28
56568;BME280;42456;49.956;20.004;2024-02-23T10:19:38;96851.56;;;10.16;85.18
56568;BME280;42456;49.956;20.004;2024-02-23T10:22:05;96850.56;;;10.21;84.96
56568;BME280;42456;49.956;20.004;2024-02-23T10:24:32;96848.20;;;10.23;85.20
56568;BME280;42456;49.956;20.004;2024-02-23T10:27:01;96847.14;;;10.28;84.84
56568;BME280;42456;49.956;20.004;2024-02-23T10:29:30;96848.58;;;10.32;85.01
56568;BME280;42456;49.956;20.004;2024-02-23T10:31:59;96844.25;;;10.35;84.53
56568;BME280;42456;49.956;20.004;2024-02-23T10:34:29;96849.30;;;10.38;84.41
56568;BME280;42456;49.956;20.004;2024-02-23T10:52:28;96854.07;;;10.65;84.39
56568;BME280;42456;49.956;20.004;2024-02-23T10:56:00;96854.13;;;10.75;84.28
56568;BME280;42456;49.956;20.004;2024-02-23T10:58:28;96857.73;;;10.79;84.13
56568;BME280;42456;49.956;20.004;2024-02-23T11:04:16;96861.46;;;10.83;83.72
56568;BME280;42456;49.956;20.004;2024-02-23T11:06:54;96857.57;;;10.91;83.98
56568;BME280;42456;49.956;20.004;2024-02-23T11:09:26;96857.24;;;10.95;83.43
56568;BME280;42456;49.956;20.004;2024-02-23T11:11:58;96863.47;;;11.01;83.01
56568;BME280;42456;49.956;20.004;2024-02-23T11:14:35;96867.40;;;11.07;83.12
56568;BME280;42456;49.956;20.004;2024-02-23T11:17:05;96868.30;;;11.12;82.82
56568;BME280;42456;49.956;20.004;2024-02-23T11:19:39;96870.73;;;11.16;82.78
56568;BME280;42456;49.956;20.004;2024-02-23T11:22:10;96868.81;;;11.22;82.76
56568;BME280;42456;49.956;20.004;2024-02-23T11:24:51;96869.70;;;11.26;82.84
56568;BME280;42456;49.956;20.004;2024-02-23T11:27:24;96874.93;;;11.32;82.56
56568;BME280;42456;49.956;20.004;2024-02-23T11:30:05;96873.36;;;11.36;82.32
56568;BME280;42456;49.956;20.004;2024-02-23T11:32:41;96875.59;;;11.37;82.09
56568;BME280;42456;49.956;20.004;2024-02-23T11:44:10;96876.32;;;11.27;81.03
56568;BME280;42456;49.956;20.004;2024-02-23T11:51:19;96878.40;;;11.33;80.71
56568;BME280;42456;49.956;20.004;2024-02-23T11:59:01;96879.43;;;11.42;80.58
56568;BME280;42456;49.956;20.004;2024-02-23T12:06:50;96892.81;;;11.49;80.27
56568;BME280;42456;49.956;20.004;2024-02-23T12:10:20;96900.33;;;11.53;80.27
56568;BME280;42456;49.956;20.004;2024-02-23T12:13:04;96898.98;;;11.56;80.11
56568;BME280;42456;49.956;20.004;2024-02-23T12:16:41;96904.04;;;11.61;79.21
56568;BME280;42456;49.956;20.004;2024-02-23T12:19:08;96902.31;;;11.59;78.94
56568;BME280;42456;49.956;20.004;2024-02-23T12:21:35;96901.14;;;11.57;79.01
56568;BME280;42456;49.956;20.004;2024-02-23T12:24:15;96905.56;;;11.61;79.18
56568;BME280;42456;49.956;20.004;2024-02-23T12:27:00;96906.02;;;11.60;78.86
56568;BME280;42456;49.956;20.004;2024-02-23T12:29:28;96908.88;;;11.60;78.90
56568;BME280;42456;49.956;20.004;2024-02-23T12:32:06;96907.55;;;11.58;79.02
56568;BME280;42456;49.956;20.004;2024-02-23T12:34:34;96910.57;;;11.60;78.57
56568;BME280;42456;49.956;20.004;2024-02-23T12:37:02;96908.48;;;11.60;78.72
56568;BME280;42456;49.956;20.004;2024-02-23T12:39:33;96912.70;;;11.59;78.51
56568;BME280;42456;49.956;20.004;2024-02-23T12:42:00;96916.33;;;11.59;78.70
56568;BME280;42456;49.956;20.004;2024-02-23T12:44:27;96914.98;;;11.62;78.72
56568;BME280;42456;49.956;20.004;2024-02-23T12:46:55;96921.15;;;11.62;78.77
56568;BME280;42456;49.956;20.004;2024-02-23T12:49:22;96926.14;;;11.62;78.58
56568;BME280;42456;49.956;20.004;2024-02-23T12:51:49;96931.30;;;11.57;78.37
56568;BME280;42456;49.956;20.004;2024-02-23T12:54:16;96931.83;;;11.50;78.29
56568;BME280;42456;49.956;20.004;2024-02-23T12:56:43;96927.45;;;11.45;78.37
56568;BME280;42456;49.956;20.004;2024-02-23T12:59:10;96922.50;;;11.42;78.70
56568;BME280;42456;49.956;20.004;2024-02-23T13:01:38;96920.00;;;11.39;78.75
56568;BME280;42456;49.956;20.004;2024-02-23T13:04:10;96917.98;;;11.37;78.67
56568;BME280;42456;49.956;20.004;2024-02-23T13:06:40;96934.60;;;11.38;79.04
56568;BME280;42456;49.956;20.004;2024-02-23T13:09:08;96944.37;;;11.37;79.58
56568;BME280;42456;49.956;20.004;2024-02-23T13:11:38;96942.06;;;11.38;79.86
56568;BME280;42456;49.956;20.004;2024-02-23T13:14:05;96940.73;;;11.37;79.96
56568;BME280;42456;49.956;20.004;2024-02-23T13:16:32;96935.82;;;11.36;80.17
56568;BME280;42456;49.956;20.004;2024-02-23T13:18:59;96937.11;;;11.36;80.29
56568;BME280;42456;49.956;20.004;2024-02-23T13:21:27;96937.29;;;11.36;80.09
56568;BME280;42456;49.956;20.004;2024-02-23T13:23:54;96942.30;;;11.39;80.11
56568;BME280;42456;49.956;20.004;2024-02-23T13:26:21;96940.33;;;11.40;80.07
56568;BME280;42456;49.956;20.004;2024-02-23T13:28:48;96938.42;;;11.42;79.91
56568;BME280;42456;49.956;20.004;2024-02-23T13:31:15;96935.59;;;11.43;79.86
56568;BME280;42456;49.956;20.004;2024-02-23T13:33:43;96941.61;;;11.44;79.70
56568;BME280;42456;49.956;20.004;2024-02-23T13:36:12;96943.98;;;11.43;79.66
56568;BME280;42456;49.956;20.004;2024-02-23T13:38:39;96949.91;;;11.43;79.75
56568;BME280;42456;49.956;20.004;2024-02-23T13:41:08;96953.73;;;11.42;79.68
56568;BME280;42456;49.956;20.004;2024-02-23T13:43:37;96956.23;;;11.38;79.60
56568;BME280;42456;49.956;20.004;2024-02-23T13:46:05;96960.25;;;11.35;79.65
56568;BME280;42456;49.956;20.004;2024-02-23T13:48:32;96956.11;;;11.30;79.56
56568;BME280;42456;49.956;20.004;2024-02-23T13:50:59;96954.58;;;11.26;79.59
56568;BME280;42456;49.956;20.004;2024-02-23T13:53:31;96959.46;;;11.22;79.51
56568;BME280;42456;49.956;20.004;2024-02-23T13:56:00;96958.46;;;11.16;79.61
56568;BME280;42456;49.956;20.004;2024-02-23T13:58:30;96957.85;;;11.11;79.98
56568;BME280;42456;49.956;20.004;2024-02-23T14:00:57;96958.02;;;11.06;80.38
56568;BME280;42456;49.956;20.004;2024-02-23T14:03:25;96963.06;;;11.00;80.58
56568;BME280;42456;49.956;20.004;2024-02-23T14:05:52;96967.29;;;10.95;80.71
56568;BME280;42456;49.956;20.004;2024-02-23T14:08:19;96962.02;;;10.90;81.18
56568;BME280;42456;49.956;20.004;2024-02-23T14:10:46;96964.86;;;10.86;81.70
56568;BME280;42456;49.956;20.004;2024-02-23T14:13:15;96966.02;;;10.82;82.38
56568;BME280;42456;49.956;20.004;2024-02-23T14:15:42;96969.96;;;10.78;82.68
56568;BME280;42456;49.956;20.004;2024-02-23T14:18:09;96972.14;;;10.75;82.75
56568;BME280;42456;49.956;20.004;2024-02-23T14:20:36;96972.00;;;10.71;82.75
56568;BME280;42456;49.956;20.004;2024-02-23T14:23:04;96971.00;;;10.66;82.43
56568;BME280;42456;49.956;20.004;2024-02-23T14:25:31;96975.27;;;10.64;82.18
56568;BME280;42456;49.956;20.004;2024-02-23T14:27:59;96973.33;;;10.62;82.19
56568;BME280;42456;49.956;20.004;2024-02-23T14:30:27;96966.81;;;10.59;82.35
56568;BME280;42456;49.956;20.004;2024-02-23T14:32:54;96964.68;;;10.55;82.18
56568;BME280;42456;49.956;20.004;2024-02-23T14:35:21;96967.53;;;10.51;82.13
56568;BME280;42456;49.956;20.004;2024-02-23T14:37:48;96973.91;;;10.47;82.23
56568;BME280;42456;49.956;20.004;2024-02-23T14:40:15;96972.02;;;10.44;82.33
56568;BME280;42456;49.956;20.004;2024-02-23T14:42:42;96971.22;;;10.42;82.25
56568;BME280;42456;49.956;20.004;2024-02-23T14:45:09;96966.21;;;10.37;82.45
56568;BME280;42456;49.956;20.004;2024-02-23T14:47:59;96969.52;;;10.34;82.59
56568;BME280;42456;49.956;20.004;2024-02-23T14:50:27;96970.98;;;10.28;82.72
56568;BME280;42456;49.956;20.004;2024-02-23T14:52:55;96970.60;;;10.24;83.12
56568;BME280;42456;49.956;20.004;2024-02-23T14:55:23;96971.02;;;10.21;82.85
56568;BME280;42456;49.956;20.004;2024-02-23T14:57:51;96975.67;;;10.20;83.12
56568;BME280;42456;49.956;20.004;2024-02-23T15:00:19;96978.64;;;10.19;83.21
56568;BME280;42456;49.956;20.004;2024-02-23T15:02:49;96983.90;;;10.16;83.76
56568;BME280;42456;49.956;20.004;2024-02-23T15:05:16;96986.45;;;10.14;84.17
56568;BME280;42456;49.956;20.004;2024-02-23T15:08:06;96995.02;;;10.12;84.18
56568;BME280;42456;49.956;20.004;2024-02-23T15:11:18;96992.95;;;10.08;84.49
56568;BME280;42456;49.956;20.004;2024-02-23T15:13:46;96993.28;;;10.06;84.78
56568;BME280;42456;49.956;20.004;2024-02-23T15:16:15;96990.66;;;10.03;85.26
56568;BME280;42456;49.956;20.004;2024-02-23T15:18:43;96983.82;;;10.01;85.30
56568;BME280;42456;49.956;20.004;2024-02-23T15:21:11;96981.77;;;9.99;85.56
56568;BME280;42456;49.956;20.004;2024-02-23T15:23:39;96986.55;;;9.96;85.53
56568;BME280;42456;49.956;20.004;2024-02-23T15:26:32;96984.34;;;9.92;85.71
56568;BME280;42456;49.956;20.004;2024-02-23T15:29:00;96982.16;;;9.90;86.04
56568;BME280;42456;49.956;20.004;2024-02-23T15:31:45;96976.55;;;9.87;86.10
56568;BME280;42456;49.956;20.004;2024-02-23T15:34:34;96982.20;;;9.85;86.15
56568;BME280;42456;49.956;20.004;2024-02-23T15:37:11;96988.09;;;9.80;85.92
56568;BME280;42456;49.956;20.004;2024-02-23T15:40:09;96991.17;;;9.78;86.15
56568;BME280;42456;49.956;20.004;2024-02-23T15:42:37;96991.77;;;9.76;86.68
56568;BME280;42456;49.956;20.004;2024-02-23T15:45:05;96982.79;;;9.72;86.62
56568;BME280;42456;49.956;20.004;2024-02-23T15:47:33;96991.02;;;9.69;86.64